Погода Мочковона 2 недели

Западнопоморское воеводство, Польша

20 июля-02 августа
  • 20июля
    Сегодня
    +16°
    +28°
    Небольшая облачность
    ВремяПогодаТемператураВлажностьДавлениеВетер, м/сВероятность осадков
    02:00Облачно с прояснениями+16°C91 %758 мм1.8 м/с2 %
    05:00Облачно с прояснениями+16°C94 %757 мм1.9 м/с2 %
    08:00Облачно с прояснениями+21°C80 %757 мм1.3 м/с2 %
    11:00Ясно и безоблачно+25°C53 %756 мм1.2 м/с2 %
    14:00Небольшая облачность+26°C45 %755 мм1.0 м/с2 %
    17:00Ясно и безоблачно+27°C44 %754 мм1.8 м/с2 %
    20:00Ясно и безоблачно+25°C59 %754 мм2.8 м/с2 %
    23:00Ясно и безоблачно+20°C71 %753 мм2.9 м/с2 %
  • 21июля
    Воскресенье
    +19°
    +30°
    Ясно и безоблачно
    ВремяПогодаТемператураВлажностьДавлениеВетер, м/сВероятность осадков
    02:00Ясно и безоблачно+18°C70 %753 мм2.7 м/с2 %
    05:00Ясно и безоблачно+17°C72 %752 мм2.4 м/с2 %
    08:00Ясно и безоблачно+21°C70 %753 мм1.9 м/с2 %
    11:00Ясно и безоблачно+27°C51 %753 мм1.3 м/с2 %
    14:00Ясно и безоблачно+29°C42 %752 мм1.7 м/с2 %
    17:00Ясно и безоблачно+30°C39 %751 мм1.3 м/с2 %
    20:00Практически безоблачно+27°C58 %751 мм2.2 м/с2 %
    23:00Практически безоблачно+23°C61 %752 мм4.5 м/с2 %
  • 22июля
    Понедельник
    +13°
    +23°
    Пасмурно, дожди с грозами
    ВремяПогодаТемператураВлажностьДавлениеВетер, м/сВероятность осадков
    02:00Ясно и безоблачно+20°C66 %752 мм3.8 м/с2 %
    05:00Ясно и безоблачно+19°C75 %752 мм3.5 м/с1 %
    08:00Облачно с прояснениями+22°C72 %753 мм1.2 м/с15 %
    11:00Пасмурно, ливень+21°C82 %754 мм2.1 м/с61 %
    14:00Пасмурно, дожди с грозами+23°C74 %754 мм1.5 м/с89 %
    17:00Пасмурно, дождь+23°C79 %755 мм4.9 м/с87 %
    20:00Пасмурно, ливень+22°C89 %756 мм3.7 м/с82 %
    23:00Небольшая облачность+19°C92 %757 мм3.2 м/с30 %
  • 23июля
    Вторник
    +15°
    +24°
    Ясно и безоблачно
    ВремяПогодаТемператураВлажностьДавлениеВетер, м/сВероятность осадков
    02:00Облачно с прояснениями+16°C84 %757 мм3.3 м/с6 %
    05:00Облачно с прояснениями+13°C84 %757 мм2.7 м/с6 %
    08:00Облачно с прояснениями+17°C81 %758 мм2.2 м/с3 %
    11:00Небольшая облачность+21°C61 %758 мм2.7 м/с3 %
    14:00Ясно и безоблачно+23°C49 %757 мм2.6 м/с2 %
    17:00Практически безоблачно+24°C45 %756 мм1.4 м/с9 %
    20:00Ясно и безоблачно+22°C59 %756 мм1.8 м/с13 %
    23:00Ясно и безоблачно+18°C65 %755 мм2.2 м/с23 %
  • 24июля
    Среда
    +13°
    +22°
    Пасмурно, небольшой дождь
    ВремяПогодаТемператураВлажностьДавлениеВетер, м/сВероятность осадков
    02:00Небольшая облачность+17°C73 %755 мм1.9 м/с25 %
    05:00Пасмурно, небольшой дождь+16°C80 %755 мм2.0 м/с58 %
    08:00Пасмурно, дождь+16°C93 %755 мм2.2 м/с65 %
    11:00Пасмурно, ливень+19°C83 %755 мм2.7 м/с85 %
    14:00Пасмурно, небольшой дождь+21°C75 %755 мм3.0 м/с87 %
    17:00Пасмурно, небольшой дождь+20°C82 %755 мм3.6 м/с83 %
    20:00Облачно с прояснениями, небольшой дождь+19°C85 %755 мм3.4 м/с73 %
    23:00Пасмурно, сплошная облачность+16°C93 %756 мм3.6 м/с47 %
Мы используем cookies
Соглашаюсь